sensor_id;sensor_type;location;lat;lon;timestamp;P1;durP1;ratioP1;P2;durP2;ratioP2
6280;SDS011;3173;48.204;11.612;2022-10-17T00:00:43;5.27;;;3.57;;
6280;SDS011;3173;48.204;11.612;2022-10-17T00:03:09;8.80;;;3.90;;
6280;SDS011;3173;48.204;11.612;2022-10-17T00:05:39;8.67;;;3.97;;
6280;SDS011;3173;48.204;11.612;2022-10-17T00:08:05;5.03;;;3.30;;
6280;SDS011;3173;48.204;11.612;2022-10-17T00:10:31;7.00;;;4.30;;
6280;SDS011;3173;48.204;11.612;2022-10-17T00:12:57;7.37;;;3.83;;
6280;SDS011;3173;48.204;11.612;2022-10-17T00:15:23;7.70;;;3.63;;
6280;SDS011;3173;48.204;11.612;2022-10-17T00:17:49;7.07;;;3.50;;
6280;SDS011;3173;48.204;11.612;2022-10-17T00:20:15;7.53;;;3.60;;
6280;SDS011;3173;48.204;11.612;2022-10-17T00:22:41;5.50;;;3.33;;
6280;SDS011;3173;48.204;11.612;2022-10-17T00:25:07;6.80;;;3.70;;
6280;SDS011;3173;48.204;11.612;2022-10-17T00:27:34;6.67;;;3.60;;
6280;SDS011;3173;48.204;11.612;2022-10-17T00:30:00;5.13;;;3.13;;
6280;SDS011;3173;48.204;11.612;2022-10-17T00:32:26;6.50;;;3.90;;
6280;SDS011;3173;48.204;11.612;2022-10-17T00:34:52;4.23;;;3.33;;
6280;SDS011;3173;48.204;11.612;2022-10-17T00:37:18;4.40;;;2.50;;
6280;SDS011;3173;48.204;11.612;2022-10-17T00:39:44;4.70;;;2.93;;
6280;SDS011;3173;48.204;11.612;2022-10-17T00:42:12;5.80;;;3.20;;
6280;SDS011;3173;48.204;11.612;2022-10-17T00:47:05;5.13;;;3.67;;
6280;SDS011;3173;48.204;11.612;2022-10-17T00:49:35;4.50;;;3.50;;
6280;SDS011;3173;48.204;11.612;2022-10-17T00:52:02;5.20;;;3.70;;
6280;SDS011;3173;48.204;11.612;2022-10-17T00:54:33;4.30;;;3.10;;
6280;SDS011;3173;48.204;11.612;2022-10-17T00:56:59;3.43;;;2.77;;
6280;SDS011;3173;48.204;11.612;2022-10-17T00:59:25;14.90;;;3.60;;
6280;SDS011;3173;48.204;11.612;2022-10-17T01:01:56;7.60;;;3.50;;
6280;SDS011;3173;48.204;11.612;2022-10-17T01:04:24;6.90;;;2.93;;
6280;SDS011;3173;48.204;11.612;2022-10-17T01:06:50;4.53;;;3.30;;
6280;SDS011;3173;48.204;11.612;2022-10-17T01:09:16;7.03;;;3.00;;
6280;SDS011;3173;48.204;11.612;2022-10-17T01:17:15;5.43;;;3.60;;
6280;SDS011;3173;48.204;11.612;2022-10-17T01:19:50;6.50;;;2.93;;
6280;SDS011;3173;48.204;11.612;2022-10-17T01:37:15;3.10;;;2.60;;
6280;SDS011;3173;48.204;11.612;2022-10-17T01:39:49;3.80;;;2.80;;
6280;SDS011;3173;48.204;11.612;2022-10-17T01:44:48;4.73;;;2.90;;
6280;SDS011;3173;48.204;11.612;2022-10-17T01:47:17;6.83;;;2.57;;
6280;SDS011;3173;48.204;11.612;2022-10-17T01:49:44;6.33;;;2.90;;
6280;SDS011;3173;48.204;11.612;2022-10-17T01:52:12;3.70;;;2.67;;
6280;SDS011;3173;48.204;11.612;2022-10-17T01:54:44;4.10;;;2.90;;
6280;SDS011;3173;48.204;11.612;2022-10-17T01:57:18;3.30;;;2.70;;
6280;SDS011;3173;48.204;11.612;2022-10-17T01:59:45;3.90;;;3.10;;
6280;SDS011;3173;48.204;11.612;2022-10-17T02:02:13;8.27;;;3.27;;
6280;SDS011;3173;48.204;11.612;2022-10-17T02:04:40;7.43;;;2.77;;
6280;SDS011;3173;48.204;11.612;2022-10-17T02:07:07;3.93;;;2.53;;
6280;SDS011;3173;48.204;11.612;2022-10-17T02:09:33;4.03;;;2.80;;
6280;SDS011;3173;48.204;11.612;2022-10-17T02:14:38;3.93;;;2.60;;
6280;SDS011;3173;48.204;11.612;2022-10-17T02:17:13;5.30;;;3.00;;
6280;SDS011;3173;48.204;11.612;2022-10-17T02:24:58;5.33;;;2.47;;
6280;SDS011;3173;48.204;11.612;2022-10-17T02:27:37;11.10;;;2.43;;
6280;SDS011;3173;48.204;11.612;2022-10-17T02:30:10;4.90;;;2.47;;
6280;SDS011;3173;48.204;11.612;2022-10-17T02:32:42;3.57;;;2.70;;
6280;SDS011;3173;48.204;11.612;2022-10-17T02:35:10;3.70;;;2.77;;
6280;SDS011;3173;48.204;11.612;2022-10-17T02:37:37;9.50;;;2.60;;
6280;SDS011;3173;48.204;11.612;2022-10-17T02:40:06;8.60;;;2.53;;
6280;SDS011;3173;48.204;11.612;2022-10-17T02:42:33;5.00;;;2.50;;
6280;SDS011;3173;48.204;11.612;2022-10-17T02:44:59;5.67;;;2.53;;
6280;SDS011;3173;48.204;11.612;2022-10-17T02:47:27;6.10;;;2.57;;
6280;SDS011;3173;48.204;11.612;2022-10-17T02:49:56;9.40;;;3.27;;
6280;SDS011;3173;48.204;11.612;2022-10-17T02:52:35;8.83;;;2.80;;
6280;SDS011;3173;48.204;11.612;2022-10-17T02:55:04;2.77;;;2.10;;
6280;SDS011;3173;48.204;11.612;2022-10-17T02:57:38;4.57;;;2.57;;
6280;SDS011;3173;48.204;11.612;2022-10-17T03:00:06;7.03;;;2.63;;
6280;SDS011;3173;48.204;11.612;2022-10-17T03:02:40;8.93;;;2.43;;
6280;SDS011;3173;48.204;11.612;2022-10-17T03:05:07;4.23;;;2.40;;
6280;SDS011;3173;48.204;11.612;2022-10-17T03:07:33;3.73;;;2.63;;
6280;SDS011;3173;48.204;11.612;2022-10-17T03:09:59;5.47;;;2.53;;
6280;SDS011;3173;48.204;11.612;2022-10-17T03:12:25;5.50;;;3.43;;
6280;SDS011;3173;48.204;11.612;2022-10-17T03:14:51;3.60;;;2.20;;
6280;SDS011;3173;48.204;11.612;2022-10-17T03:17:17;13.03;;;3.03;;
6280;SDS011;3173;48.204;11.612;2022-10-17T03:19:43;11.87;;;2.80;;
6280;SDS011;3173;48.204;11.612;2022-10-17T03:22:09;8.30;;;2.47;;
6280;SDS011;3173;48.204;11.612;2022-10-17T03:24:35;3.57;;;2.20;;
6280;SDS011;3173;48.204;11.612;2022-10-17T03:27:01;2.97;;;2.53;;
6280;SDS011;3173;48.204;11.612;2022-10-17T03:29:26;2.77;;;1.93;;
6280;SDS011;3173;48.204;11.612;2022-10-17T03:31:52;2.50;;;2.20;;
6280;SDS011;3173;48.204;11.612;2022-10-17T03:34:18;6.07;;;2.70;;
6280;SDS011;3173;48.204;11.612;2022-10-17T03:36:44;5.00;;;2.53;;
6280;SDS011;3173;48.204;11.612;2022-10-17T03:39:10;8.77;;;3.00;;
6280;SDS011;3173;48.204;11.612;2022-10-17T03:41:36;4.63;;;2.37;;
6280;SDS011;3173;48.204;11.612;2022-10-17T03:44:02;4.63;;;3.17;;
6280;SDS011;3173;48.204;11.612;2022-10-17T03:46:28;5.83;;;3.17;;
6280;SDS011;3173;48.204;11.612;2022-10-17T03:48:54;5.63;;;2.80;;
6280;SDS011;3173;48.204;11.612;2022-10-17T03:51:20;4.30;;;2.53;;
6280;SDS011;3173;48.204;11.612;2022-10-17T03:53:46;4.17;;;2.47;;
6280;SDS011;3173;48.204;11.612;2022-10-17T03:56:19;5.73;;;2.80;;
6280;SDS011;3173;48.204;11.612;2022-10-17T03:58:45;3.17;;;2.50;;
6280;SDS011;3173;48.204;11.612;2022-10-17T04:01:12;6.20;;;2.80;;
6280;SDS011;3173;48.204;11.612;2022-10-17T04:03:39;4.57;;;2.50;;
6280;SDS011;3173;48.204;11.612;2022-10-17T04:06:06;6.73;;;3.20;;
6280;SDS011;3173;48.204;11.612;2022-10-17T04:08:32;5.10;;;2.97;;
6280;SDS011;3173;48.204;11.612;2022-10-17T04:10:59;5.40;;;3.03;;
6280;SDS011;3173;48.204;11.612;2022-10-17T04:13:25;9.30;;;3.53;;
6280;SDS011;3173;48.204;11.612;2022-10-17T04:15:55;10.57;;;4.60;;
6280;SDS011;3173;48.204;11.612;2022-10-17T04:18:21;5.27;;;3.30;;
6280;SDS011;3173;48.204;11.612;2022-10-17T04:20:47;5.50;;;3.57;;
6280;SDS011;3173;48.204;11.612;2022-10-17T04:23:13;5.70;;;2.87;;
6280;SDS011;3173;48.204;11.612;2022-10-17T04:25:39;3.60;;;2.47;;
6280;SDS011;3173;48.204;11.612;2022-10-17T04:28:05;7.00;;;3.63;;
6280;SDS011;3173;48.204;11.612;2022-10-17T04:30:31;4.13;;;2.47;;
6280;SDS011;3173;48.204;11.612;2022-10-17T04:32:57;5.10;;;2.57;;
6280;SDS011;3173;48.204;11.612;2022-10-17T04:35:23;7.20;;;3.07;;
6280;SDS011;3173;48.204;11.612;2022-10-17T04:37:49;3.70;;;2.80;;
6280;SDS011;3173;48.204;11.612;2022-10-17T04:40:15;5.07;;;2.93;;
6280;SDS011;3173;48.204;11.612;2022-10-17T04:42:41;6.13;;;3.10;;
6280;SDS011;3173;48.204;11.612;2022-10-17T04:45:07;5.23;;;2.60;;
6280;SDS011;3173;48.204;11.612;2022-10-17T04:47:33;9.23;;;2.50;;
6280;SDS011;3173;48.204;11.612;2022-10-17T04:49:59;5.50;;;2.90;;
6280;SDS011;3173;48.204;11.612;2022-10-17T04:52:25;5.03;;;2.90;;
6280;SDS011;3173;48.204;11.612;2022-10-17T04:54:50;3.20;;;2.50;;
6280;SDS011;3173;48.204;11.612;2022-10-17T04:57:17;6.10;;;2.60;;
6280;SDS011;3173;48.204;11.612;2022-10-17T04:59:43;4.07;;;2.90;;
6280;SDS011;3173;48.204;11.612;2022-10-17T05:02:10;5.50;;;3.23;;
6280;SDS011;3173;48.204;11.612;2022-10-17T05:04:36;3.40;;;2.60;;
6280;SDS011;3173;48.204;11.612;2022-10-17T05:07:02;4.37;;;2.87;;
6280;SDS011;3173;48.204;11.612;2022-10-17T05:09:28;4.57;;;2.60;;
6280;SDS011;3173;48.204;11.612;2022-10-17T05:11:54;6.73;;;3.60;;
6280;SDS011;3173;48.204;11.612;2022-10-17T05:14:20;7.10;;;3.10;;
6280;SDS011;3173;48.204;11.612;2022-10-17T05:16:46;9.40;;;3.77;;
6280;SDS011;3173;48.204;11.612;2022-10-17T05:19:12;9.17;;;2.80;;
6280;SDS011;3173;48.204;11.612;2022-10-17T05:21:38;4.50;;;2.60;;
6280;SDS011;3173;48.204;11.612;2022-10-17T05:24:05;4.23;;;2.80;;
6280;SDS011;3173;48.204;11.612;2022-10-17T05:26:31;4.23;;;2.70;;
6280;SDS011;3173;48.204;11.612;2022-10-17T05:28:58;5.27;;;2.70;;
6280;SDS011;3173;48.204;11.612;2022-10-17T05:31:26;5.13;;;2.90;;
6280;SDS011;3173;48.204;11.612;2022-10-17T05:33:52;7.93;;;4.40;;
6280;SDS011;3173;48.204;11.612;2022-10-17T05:36:18;4.93;;;3.43;;
6280;SDS011;3173;48.204;11.612;2022-10-17T05:38:47;6.30;;;3.70;;
6280;SDS011;3173;48.204;11.612;2022-10-17T05:41:14;3.80;;;2.43;;
6280;SDS011;3173;48.204;11.612;2022-10-17T05:43:40;7.47;;;3.30;;
6280;SDS011;3173;48.204;11.612;2022-10-17T05:46:06;6.13;;;2.80;;
6280;SDS011;3173;48.204;11.612;2022-10-17T05:48:32;5.23;;;2.60;;
6280;SDS011;3173;48.204;11.612;2022-10-17T05:50:59;5.30;;;2.97;;
6280;SDS011;3173;48.204;11.612;2022-10-17T05:53:25;6.27;;;2.90;;
6280;SDS011;3173;48.204;11.612;2022-10-17T05:55:57;5.20;;;3.43;;
6280;SDS011;3173;48.204;11.612;2022-10-17T05:58:24;5.60;;;3.40;;
6280;SDS011;3173;48.204;11.612;2022-10-17T06:00:50;5.50;;;3.40;;
6280;SDS011;3173;48.204;11.612;2022-10-17T06:03:16;4.73;;;3.20;;
6280;SDS011;3173;48.204;11.612;2022-10-17T06:05:42;5.60;;;3.30;;
6280;SDS011;3173;48.204;11.612;2022-10-17T06:08:08;5.97;;;2.60;;
6280;SDS011;3173;48.204;11.612;2022-10-17T06:10:33;4.13;;;3.10;;
6280;SDS011;3173;48.204;11.612;2022-10-17T06:12:59;5.83;;;3.40;;
6280;SDS011;3173;48.204;11.612;2022-10-17T06:15:25;6.03;;;2.90;;
6280;SDS011;3173;48.204;11.612;2022-10-17T06:17:51;6.20;;;3.23;;
6280;SDS011;3173;48.204;11.612;2022-10-17T06:20:17;11.50;;;3.50;;
6280;SDS011;3173;48.204;11.612;2022-10-17T06:22:43;8.30;;;3.77;;
6280;SDS011;3173;48.204;11.612;2022-10-17T06:25:09;9.83;;;3.20;;
6280;SDS011;3173;48.204;11.612;2022-10-17T06:27:35;9.67;;;3.97;;
6280;SDS011;3173;48.204;11.612;2022-10-17T06:30:01;5.77;;;3.57;;
6280;SDS011;3173;48.204;11.612;2022-10-17T06:32:28;6.10;;;3.47;;
6280;SDS011;3173;48.204;11.612;2022-10-17T06:34:53;5.63;;;3.23;;
6280;SDS011;3173;48.204;11.612;2022-10-17T06:37:19;5.70;;;3.27;;
6280;SDS011;3173;48.204;11.612;2022-10-17T06:39:45;9.70;;;3.20;;
6280;SDS011;3173;48.204;11.612;2022-10-17T06:42:11;8.60;;;3.90;;
6280;SDS011;3173;48.204;11.612;2022-10-17T06:44:37;9.10;;;3.60;;
6280;SDS011;3173;48.204;11.612;2022-10-17T06:47:04;10.67;;;3.80;;
6280;SDS011;3173;48.204;11.612;2022-10-17T06:49:30;5.17;;;3.13;;
6280;SDS011;3173;48.204;11.612;2022-10-17T06:51:58;14.53;;;3.80;;
6280;SDS011;3173;48.204;11.612;2022-10-17T06:54:24;8.37;;;3.50;;
6280;SDS011;3173;48.204;11.612;2022-10-17T06:56:51;7.93;;;3.30;;
6280;SDS011;3173;48.204;11.612;2022-10-17T06:59:17;5.23;;;3.03;;
6280;SDS011;3173;48.204;11.612;2022-10-17T07:01:44;4.80;;;2.70;;
6280;SDS011;3173;48.204;11.612;2022-10-17T07:04:10;9.20;;;3.20;;
6280;SDS011;3173;48.204;11.612;2022-10-17T07:06:36;8.30;;;3.10;;
6280;SDS011;3173;48.204;11.612;2022-10-17T07:09:02;13.53;;;3.47;;
6280;SDS011;3173;48.204;11.612;2022-10-17T07:11:30;7.90;;;3.50;;
6280;SDS011;3173;48.204;11.612;2022-10-17T07:13:56;12.83;;;4.07;;
6280;SDS011;3173;48.204;11.612;2022-10-17T07:16:22;9.43;;;4.10;;
6280;SDS011;3173;48.204;11.612;2022-10-17T07:18:49;16.37;;;3.40;;
6280;SDS011;3173;48.204;11.612;2022-10-17T07:21:15;14.90;;;5.63;;
6280;SDS011;3173;48.204;11.612;2022-10-17T07:23:41;9.20;;;3.00;;
6280;SDS011;3173;48.204;11.612;2022-10-17T07:26:08;9.63;;;3.50;;
6280;SDS011;3173;48.204;11.612;2022-10-17T07:28:35;6.97;;;3.20;;
6280;SDS011;3173;48.204;11.612;2022-10-17T07:31:05;10.90;;;3.50;;
6280;SDS011;3173;48.204;11.612;2022-10-17T07:33:31;6.10;;;3.20;;
6280;SDS011;3173;48.204;11.612;2022-10-17T07:35:58;8.53;;;4.03;;
6280;SDS011;3173;48.204;11.612;2022-10-17T07:38:24;9.27;;;3.77;;
6280;SDS011;3173;48.204;11.612;2022-10-17T07:40:54;6.97;;;2.83;;
6280;SDS011;3173;48.204;11.612;2022-10-17T07:43:20;8.13;;;3.10;;
6280;SDS011;3173;48.204;11.612;2022-10-17T07:45:46;9.10;;;3.70;;
6280;SDS011;3173;48.204;11.612;2022-10-17T07:48:12;9.97;;;4.83;;
6280;SDS011;3173;48.204;11.612;2022-10-17T07:50:38;7.50;;;3.80;;
6280;SDS011;3173;48.204;11.612;2022-10-17T07:53:04;9.40;;;4.27;;
6280;SDS011;3173;48.204;11.612;2022-10-17T07:55:29;7.43;;;3.50;;
6280;SDS011;3173;48.204;11.612;2022-10-17T07:57:56;14.73;;;3.60;;
6280;SDS011;3173;48.204;11.612;2022-10-17T08:00:22;10.10;;;3.50;;
6280;SDS011;3173;48.204;11.612;2022-10-17T08:02:48;11.10;;;4.07;;
6280;SDS011;3173;48.204;11.612;2022-10-17T08:05:14;6.90;;;3.60;;
6280;SDS011;3173;48.204;11.612;2022-10-17T08:07:40;7.03;;;3.33;;
6280;SDS011;3173;48.204;11.612;2022-10-17T08:10:07;6.53;;;3.87;;
6280;SDS011;3173;48.204;11.612;2022-10-17T08:12:33;8.03;;;3.13;;
6280;SDS011;3173;48.204;11.612;2022-10-17T08:15:00;12.40;;;3.70;;
6280;SDS011;3173;48.204;11.612;2022-10-17T08:17:26;11.50;;;3.40;;
6280;SDS011;3173;48.204;11.612;2022-10-17T08:19:52;13.93;;;3.33;;
6280;SDS011;3173;48.204;11.612;2022-10-17T08:22:18;4.90;;;3.20;;
6280;SDS011;3173;48.204;11.612;2022-10-17T08:24:44;7.30;;;3.07;;
6280;SDS011;3173;48.204;11.612;2022-10-17T08:27:10;6.40;;;2.80;;
6280;SDS011;3173;48.204;11.612;2022-10-17T08:29:38;5.63;;;2.43;;
6280;SDS011;3173;48.204;11.612;2022-10-17T08:32:04;6.10;;;2.40;;
6280;SDS011;3173;48.204;11.612;2022-10-17T08:34:30;4.23;;;2.27;;
6280;SDS011;3173;48.204;11.612;2022-10-17T08:36:56;6.47;;;2.50;;
6280;SDS011;3173;48.204;11.612;2022-10-17T08:39:22;6.93;;;2.37;;
6280;SDS011;3173;48.204;11.612;2022-10-17T08:41:51;3.30;;;1.90;;
6280;SDS011;3173;48.204;11.612;2022-10-17T08:44:44;6.87;;;2.30;;
6280;SDS011;3173;48.204;11.612;2022-10-17T08:47:14;7.03;;;2.67;;
6280;SDS011;3173;48.204;11.612;2022-10-17T08:49:42;5.00;;;2.90;;
6280;SDS011;3173;48.204;11.612;2022-10-17T08:54:56;7.37;;;2.73;;
6280;SDS011;3173;48.204;11.612;2022-10-17T08:57:22;8.50;;;1.87;;
6280;SDS011;3173;48.204;11.612;2022-10-17T08:59:48;8.00;;;2.07;;
6280;SDS011;3173;48.204;11.612;2022-10-17T09:18:07;2.20;;;1.47;;
6280;SDS011;3173;48.204;11.612;2022-10-17T09:21:08;3.40;;;1.90;;
6280;SDS011;3173;48.204;11.612;2022-10-17T09:23:28;2.57;;;1.10;;
6280;SDS011;3173;48.204;11.612;2022-10-17T09:25:57;4.23;;;1.63;;
6280;SDS011;3173;48.204;11.612;2022-10-17T09:28:42;3.60;;;1.40;;
6280;SDS011;3173;48.204;11.612;2022-10-17T09:36:04;1.80;;;1.40;;
6280;SDS011;3173;48.204;11.612;2022-10-17T09:38:36;4.20;;;1.35;;
6280;SDS011;3173;48.204;11.612;2022-10-17T09:41:03;3.75;;;1.60;;
6280;SDS011;3173;48.204;11.612;2022-10-17T09:43:31;1.45;;;1.27;;
6280;SDS011;3173;48.204;11.612;2022-10-17T09:48:50;2.95;;;1.10;;
6280;SDS011;3173;48.204;11.612;2022-10-17T09:51:15;4.50;;;1.38;;
6280;SDS011;3173;48.204;11.612;2022-10-17T09:53:43;3.20;;;1.50;;
6280;SDS011;3173;48.204;11.612;2022-10-17T09:56:12;2.50;;;1.27;;
6280;SDS011;3173;48.204;11.612;2022-10-17T09:58:40;3.20;;;1.75;;
6280;SDS011;3173;48.204;11.612;2022-10-17T10:01:17;1.80;;;1.25;;
6280;SDS011;3173;48.204;11.612;2022-10-17T10:03:43;1.90;;;1.27;;
6280;SDS011;3173;48.204;11.612;2022-10-17T10:08:54;2.38;;;1.20;;
6280;SDS011;3173;48.204;11.612;2022-10-17T10:11:46;3.22;;;1.50;;
6280;SDS011;3173;48.204;11.612;2022-10-17T10:14:11;3.60;;;1.10;;
6280;SDS011;3173;48.204;11.612;2022-10-17T10:16:41;2.25;;;1.52;;
6280;SDS011;3173;48.204;11.612;2022-10-17T10:22:13;7.28;;;1.10;;
6280;SDS011;3173;48.204;11.612;2022-10-17T10:24:40;4.05;;;1.20;;
6280;SDS011;3173;48.204;11.612;2022-10-17T10:27:10;1.70;;;1.08;;
6280;SDS011;3173;48.204;11.612;2022-10-17T10:29:41;1.73;;;1.17;;
6280;SDS011;3173;48.204;11.612;2022-10-17T10:32:21;4.03;;;1.30;;
6280;SDS011;3173;48.204;11.612;2022-10-17T10:34:49;2.83;;;1.27;;
6280;SDS011;3173;48.204;11.612;2022-10-17T10:37:20;3.67;;;1.10;;
6280;SDS011;3173;48.204;11.612;2022-10-17T10:39:48;1.40;;;1.10;;
6280;SDS011;3173;48.204;11.612;2022-10-17T10:42:24;1.13;;;0.93;;
6280;SDS011;3173;48.204;11.612;2022-10-17T10:44:51;2.08;;;1.00;;
6280;SDS011;3173;48.204;11.612;2022-10-17T10:47:25;3.30;;;1.00;;
6280;SDS011;3173;48.204;11.612;2022-10-17T10:49:52;1.38;;;0.80;;
6280;SDS011;3173;48.204;11.612;2022-10-17T10:52:33;3.25;;;0.90;;
6280;SDS011;3173;48.204;11.612;2022-10-17T10:55:43;1.30;;;1.10;;
6280;SDS011;3173;48.204;11.612;2022-10-17T10:57:50;2.47;;;1.17;;
6280;SDS011;3173;48.204;11.612;2022-10-17T11:00:22;2.38;;;0.80;;
6280;SDS011;3173;48.204;11.612;2022-10-17T11:05:33;2.22;;;1.10;;
6280;SDS011;3173;48.204;11.612;2022-10-17T11:08:15;2.22;;;1.10;;
6280;SDS011;3173;48.204;11.612;2022-10-17T11:18:07;2.75;;;1.13;;
6280;SDS011;3173;48.204;11.612;2022-10-17T11:20:38;3.53;;;1.45;;
6280;SDS011;3173;48.204;11.612;2022-10-17T11:25:36;2.00;;;0.90;;
6280;SDS011;3173;48.204;11.612;2022-10-17T11:28:03;1.60;;;0.90;;
6280;SDS011;3173;48.204;11.612;2022-10-17T11:30:52;3.53;;;1.20;;
6280;SDS011;3173;48.204;11.612;2022-10-17T11:33:28;1.85;;;1.00;;
6280;SDS011;3173;48.204;11.612;2022-10-17T11:35:56;3.63;;;1.15;;
6280;SDS011;3173;48.204;11.612;2022-10-17T11:38:35;2.88;;;0.90;;
6280;SDS011;3173;48.204;11.612;2022-10-17T11:41:02;5.40;;;0.90;;
6280;SDS011;3173;48.204;11.612;2022-10-17T11:43:30;5.72;;;1.10;;
6280;SDS011;3173;48.204;11.612;2022-10-17T11:45:58;3.10;;;0.80;;
6280;SDS011;3173;48.204;11.612;2022-10-17T11:48:27;3.40;;;0.88;;
6280;SDS011;3173;48.204;11.612;2022-10-17T11:51:12;1.05;;;0.80;;
6280;SDS011;3173;48.204;11.612;2022-10-17T11:59:27;4.97;;;0.93;;
6280;SDS011;3173;48.204;11.612;2022-10-17T12:01:55;2.15;;;0.80;;
6280;SDS011;3173;48.204;11.612;2022-10-17T12:07:12;6.03;;;0.95;;
6280;SDS011;3173;48.204;11.612;2022-10-17T12:09:49;1.20;;;0.95;;
6280;SDS011;3173;48.204;11.612;2022-10-17T12:12:24;2.20;;;1.02;;
6280;SDS011;3173;48.204;11.612;2022-10-17T12:14:51;1.65;;;1.00;;
6280;SDS011;3173;48.204;11.612;2022-10-17T12:19:45;5.07;;;1.05;;
6280;SDS011;3173;48.204;11.612;2022-10-17T12:24:41;2.45;;;1.10;;
6280;SDS011;3173;48.204;11.612;2022-10-17T12:27:20;3.05;;;0.85;;
6280;SDS011;3173;48.204;11.612;2022-10-17T12:29:46;2.05;;;1.00;;
6280;SDS011;3173;48.204;11.612;2022-10-17T12:32:12;3.15;;;1.05;;
6280;SDS011;3173;48.204;11.612;2022-10-17T12:34:39;6.10;;;1.20;;
6280;SDS011;3173;48.204;11.612;2022-10-17T12:37:15;1.87;;;1.20;;
6280;SDS011;3173;48.204;11.612;2022-10-17T12:40:00;6.10;;;1.50;;
6280;SDS011;3173;48.204;11.612;2022-10-17T12:42:27;2.30;;;1.23;;
6280;SDS011;3173;48.204;11.612;2022-10-17T12:44:54;3.73;;;1.33;;
6280;SDS011;3173;48.204;11.612;2022-10-17T12:47:27;2.27;;;1.20;;
6280;SDS011;3173;48.204;11.612;2022-10-17T12:49:53;9.47;;;1.53;;
6280;SDS011;3173;48.204;11.612;2022-10-17T12:57:22;1.83;;;1.40;;
6280;SDS011;3173;48.204;11.612;2022-10-17T12:59:49;6.23;;;1.40;;
6280;SDS011;3173;48.204;11.612;2022-10-17T13:02:19;2.80;;;1.50;;
6280;SDS011;3173;48.204;11.612;2022-10-17T13:04:46;3.93;;;1.33;;
6280;SDS011;3173;48.204;11.612;2022-10-17T13:07:15;3.23;;;1.10;;
6280;SDS011;3173;48.204;11.612;2022-10-17T13:09:43;1.47;;;1.27;;
6280;SDS011;3173;48.204;11.612;2022-10-17T13:12:11;2.30;;;1.10;;
6280;SDS011;3173;48.204;11.612;2022-10-17T13:14:38;2.50;;;1.30;;
6280;SDS011;3173;48.204;11.612;2022-10-17T13:17:06;2.57;;;1.37;;
6280;SDS011;3173;48.204;11.612;2022-10-17T13:19:44;3.17;;;1.37;;
6280;SDS011;3173;48.204;11.612;2022-10-17T13:22:15;2.00;;;1.03;;
6280;SDS011;3173;48.204;11.612;2022-10-17T13:24:41;3.47;;;1.27;;
6280;SDS011;3173;48.204;11.612;2022-10-17T13:27:24;2.60;;;1.30;;
6280;SDS011;3173;48.204;11.612;2022-10-17T13:29:50;1.50;;;1.10;;
6280;SDS011;3173;48.204;11.612;2022-10-17T13:32:16;5.17;;;1.20;;
6280;SDS011;3173;48.204;11.612;2022-10-17T13:34:42;1.87;;;1.40;;
6280;SDS011;3173;48.204;11.612;2022-10-17T13:37:09;2.57;;;1.40;;
6280;SDS011;3173;48.204;11.612;2022-10-17T13:39:37;3.00;;;1.30;;
6280;SDS011;3173;48.204;11.612;2022-10-17T13:42:03;1.50;;;1.20;;
6280;SDS011;3173;48.204;11.612;2022-10-17T13:44:31;2.63;;;1.17;;
6280;SDS011;3173;48.204;11.612;2022-10-17T13:46:57;2.73;;;1.50;;
6280;SDS011;3173;48.204;11.612;2022-10-17T13:49:33;1.80;;;1.10;;
6280;SDS011;3173;48.204;11.612;2022-10-17T13:52:02;2.60;;;1.50;;
6280;SDS011;3173;48.204;11.612;2022-10-17T13:54:41;1.60;;;1.27;;
6280;SDS011;3173;48.204;11.612;2022-10-17T13:59:47;4.10;;;1.10;;
6280;SDS011;3173;48.204;11.612;2022-10-17T14:02:18;1.60;;;1.10;;
6280;SDS011;3173;48.204;11.612;2022-10-17T14:04:44;7.73;;;1.97;;
6280;SDS011;3173;48.204;11.612;2022-10-17T14:07:19;1.90;;;1.30;;
6280;SDS011;3173;48.204;11.612;2022-10-17T14:09:46;2.27;;;1.20;;
6280;SDS011;3173;48.204;11.612;2022-10-17T14:12:12;3.40;;;1.27;;
6280;SDS011;3173;48.204;11.612;2022-10-17T14:14:40;2.00;;;1.33;;
6280;SDS011;3173;48.204;11.612;2022-10-17T14:17:12;7.30;;;1.73;;
6280;SDS011;3173;48.204;11.612;2022-10-17T14:19:38;3.27;;;1.30;;
6280;SDS011;3173;48.204;11.612;2022-10-17T14:24:46;2.80;;;1.37;;
6280;SDS011;3173;48.204;11.612;2022-10-17T14:29:51;6.33;;;2.00;;
6280;SDS011;3173;48.204;11.612;2022-10-17T14:32:18;7.40;;;1.63;;
6280;SDS011;3173;48.204;11.612;2022-10-17T14:34:44;3.03;;;1.40;;
6280;SDS011;3173;48.204;11.612;2022-10-17T14:39:57;3.80;;;1.57;;
6280;SDS011;3173;48.204;11.612;2022-10-17T14:42:24;1.80;;;1.53;;
6280;SDS011;3173;48.204;11.612;2022-10-17T14:44:50;2.23;;;1.20;;
6280;SDS011;3173;48.204;11.612;2022-10-17T14:47:18;2.70;;;1.10;;
6280;SDS011;3173;48.204;11.612;2022-10-17T14:49:47;3.27;;;1.10;;
6280;SDS011;3173;48.204;11.612;2022-10-17T14:54:39;4.90;;;1.20;;
6280;SDS011;3173;48.204;11.612;2022-10-17T14:57:16;2.83;;;1.33;;
6280;SDS011;3173;48.204;11.612;2022-10-17T14:59:42;1.97;;;1.30;;
6280;SDS011;3173;48.204;11.612;2022-10-17T15:02:08;6.50;;;1.37;;
6280;SDS011;3173;48.204;11.612;2022-10-17T15:04:34;3.10;;;1.47;;
6280;SDS011;3173;48.204;11.612;2022-10-17T15:07:00;3.97;;;1.63;;
6280;SDS011;3173;48.204;11.612;2022-10-17T15:09:26;4.90;;;1.13;;
6280;SDS011;3173;48.204;11.612;2022-10-17T15:11:58;2.53;;;1.10;;
6280;SDS011;3173;48.204;11.612;2022-10-17T15:14:26;2.17;;;1.33;;
6280;SDS011;3173;48.204;11.612;2022-10-17T15:16:52;3.50;;;1.40;;
6280;SDS011;3173;48.204;11.612;2022-10-17T15:19:18;3.47;;;1.73;;
6280;SDS011;3173;48.204;11.612;2022-10-17T15:21:44;2.70;;;1.50;;
6280;SDS011;3173;48.204;11.612;2022-10-17T15:24:10;3.00;;;1.53;;
6280;SDS011;3173;48.204;11.612;2022-10-17T15:26:36;3.00;;;1.27;;
6280;SDS011;3173;48.204;11.612;2022-10-17T15:29:02;2.67;;;1.47;;
6280;SDS011;3173;48.204;11.612;2022-10-17T15:31:28;8.10;;;2.07;;
6280;SDS011;3173;48.204;11.612;2022-10-17T15:33:55;9.67;;;1.93;;
6280;SDS011;3173;48.204;11.612;2022-10-17T15:36:28;3.97;;;1.73;;
6280;SDS011;3173;48.204;11.612;2022-10-17T15:38:55;5.10;;;1.83;;
6280;SDS011;3173;48.204;11.612;2022-10-17T15:41:22;4.20;;;1.70;;
6280;SDS011;3173;48.204;11.612;2022-10-17T15:43:49;2.67;;;1.60;;
6280;SDS011;3173;48.204;11.612;2022-10-17T15:46:20;4.47;;;2.13;;
6280;SDS011;3173;48.204;11.612;2022-10-17T15:48:46;6.90;;;2.30;;
6280;SDS011;3173;48.204;11.612;2022-10-17T15:51:12;6.30;;;3.57;;
6280;SDS011;3173;48.204;11.612;2022-10-17T15:53:38;7.50;;;3.20;;
6280;SDS011;3173;48.204;11.612;2022-10-17T15:56:05;6.83;;;3.80;;
6280;SDS011;3173;48.204;11.612;2022-10-17T15:58:38;4.13;;;2.73;;
6280;SDS011;3173;48.204;11.612;2022-10-17T16:01:05;5.33;;;3.13;;
6280;SDS011;3173;48.204;11.612;2022-10-17T16:03:31;6.10;;;3.20;;
6280;SDS011;3173;48.204;11.612;2022-10-17T16:05:57;6.03;;;3.53;;
6280;SDS011;3173;48.204;11.612;2022-10-17T16:08:23;5.43;;;2.37;;
6280;SDS011;3173;48.204;11.612;2022-10-17T16:10:50;4.70;;;2.57;;
6280;SDS011;3173;48.204;11.612;2022-10-17T16:13:20;4.67;;;2.70;;
6280;SDS011;3173;48.204;11.612;2022-10-17T16:15:46;5.30;;;2.37;;
6280;SDS011;3173;48.204;11.612;2022-10-17T16:18:12;3.37;;;2.47;;
6280;SDS011;3173;48.204;11.612;2022-10-17T16:20:38;5.17;;;2.80;;
6280;SDS011;3173;48.204;11.612;2022-10-17T16:23:04;4.80;;;2.53;;
6280;SDS011;3173;48.204;11.612;2022-10-17T16:25:32;4.23;;;2.60;;
6280;SDS011;3173;48.204;11.612;2022-10-17T16:28:01;8.40;;;2.50;;
6280;SDS011;3173;48.204;11.612;2022-10-17T16:30:28;5.97;;;2.40;;
6280;SDS011;3173;48.204;11.612;2022-10-17T16:32:55;6.80;;;2.53;;
6280;SDS011;3173;48.204;11.612;2022-10-17T16:35:23;3.53;;;2.67;;
6280;SDS011;3173;48.204;11.612;2022-10-17T16:37:49;4.20;;;2.77;;
6280;SDS011;3173;48.204;11.612;2022-10-17T16:40:15;3.43;;;2.17;;
6280;SDS011;3173;48.204;11.612;2022-10-17T16:42:42;4.37;;;2.57;;
6280;SDS011;3173;48.204;11.612;2022-10-17T16:45:09;7.03;;;4.30;;
6280;SDS011;3173;48.204;11.612;2022-10-17T16:47:35;8.20;;;3.60;;
6280;SDS011;3173;48.204;11.612;2022-10-17T16:50:01;6.93;;;3.10;;
6280;SDS011;3173;48.204;11.612;2022-10-17T16:52:27;8.90;;;3.20;;
6280;SDS011;3173;48.204;11.612;2022-10-17T16:54:53;6.63;;;3.30;;